createdAt,value
2023-01-30T00:01:42.962Z,24.03
2023-01-30T00:04:12.413Z,23.03
2023-01-30T00:06:43.162Z,34.17
2023-01-30T00:09:14.791Z,32.67
2023-01-30T00:11:42.620Z,32.03
2023-01-30T00:14:09.882Z,33.40
2023-01-30T00:16:37.213Z,33.38
2023-01-30T00:19:04.086Z,22.13
2023-01-30T00:21:31.115Z,23.97
2023-01-30T00:23:59.923Z,27.13
2023-01-30T00:26:27.214Z,27.57
2023-01-30T00:28:54.178Z,23.83
2023-01-30T00:31:21.069Z,27.70
2023-01-30T00:33:48.005Z,28.37
2023-01-30T00:36:14.935Z,29.57
2023-01-30T00:38:41.797Z,28.57
2023-01-30T00:41:10.918Z,24.70
2023-01-30T00:43:56.352Z,28.00
2023-01-30T00:46:49.734Z,28.13
2023-01-30T00:49:16.834Z,29.83
2023-01-30T00:51:43.928Z,29.90
2023-01-30T00:54:11.019Z,27.00
2023-01-30T00:56:37.854Z,29.77
2023-01-30T00:59:04.738Z,30.53
2023-01-30T01:01:31.571Z,28.20
2023-01-30T01:03:58.369Z,30.80
2023-01-30T01:06:25.180Z,31.43
2023-01-30T01:08:51.985Z,29.17
2023-01-30T01:11:24.653Z,32.40
2023-01-30T01:14:00.745Z,32.73
2023-01-30T01:16:28.573Z,30.33
2023-01-30T01:18:55.554Z,25.63
2023-01-30T01:21:23.471Z,32.00
2023-01-30T01:23:55.366Z,32.87
2023-01-30T01:26:22.397Z,22.17
2023-01-30T01:28:49.628Z,30.23
2023-01-30T01:31:17.518Z,31.83
2023-01-30T01:33:44.633Z,41.40
2023-01-30T01:36:16.224Z,28.57
2023-01-30T01:38:46.858Z,29.80
2023-01-30T01:41:15.966Z,20.07
2023-01-30T01:44:02.351Z,31.17
2023-01-30T01:46:57.930Z,27.47
2023-01-30T01:49:28.839Z,29.07
2023-01-30T01:52:08.074Z,31.20
2023-01-30T01:54:44.026Z,33.00
2023-01-30T01:57:18.852Z,32.60
2023-01-30T02:00:12.103Z,27.37
2023-01-30T02:02:42.225Z,27.50
2023-01-30T02:05:11.300Z,33.70
2023-01-30T02:07:59.645Z,31.47
2023-01-30T02:10:34.727Z,34.07
2023-01-30T02:13:01.587Z,26.40
2023-01-30T02:15:28.433Z,29.80
2023-01-30T02:17:55.291Z,30.07
2023-01-30T02:20:50.459Z,34.00
2023-01-30T02:23:51.425Z,35.30
2023-01-30T02:26:40.351Z,35.43
2023-01-30T02:29:27.675Z,45.47
2023-01-30T02:32:21.719Z,36.93
2023-01-30T02:35:01.790Z,37.67
2023-01-30T02:37:45.006Z,48.03
2023-01-30T02:40:38.886Z,38.67
2023-01-30T02:43:13.763Z,33.83
2023-01-30T02:45:52.357Z,36.47
2023-01-30T02:48:40.098Z,34.87
2023-01-30T02:51:13.860Z,32.67
2023-01-30T02:53:41.314Z,32.27
2023-01-30T02:56:09.005Z,30.43
2023-01-30T02:58:41.614Z,26.93
2023-01-30T03:01:46.209Z,33.77
2023-01-30T03:04:30.197Z,32.43
2023-01-30T03:07:16.831Z,31.10
2023-01-30T03:10:08.152Z,33.53
2023-01-30T03:12:59.735Z,27.13
2023-01-30T03:15:26.836Z,21.87
2023-01-30T03:17:55.130Z,27.40
2023-01-30T03:20:22.202Z,31.47
2023-01-30T03:22:49.227Z,24.77
2023-01-30T03:25:23.503Z,29.57
2023-01-30T03:27:52.659Z,30.20
2023-01-30T03:30:20.304Z,40.53
2023-01-30T03:32:47.136Z,38.60
2023-01-30T03:35:17.773Z,38.60
2023-01-30T03:37:45.773Z,36.00
2023-01-30T03:40:14.668Z,37.97
2023-01-30T03:42:42.074Z,36.25
2023-01-30T03:45:10.166Z,35.10
2023-01-30T03:47:36.978Z,35.05
2023-01-30T03:50:04.048Z,34.88
2023-01-30T03:52:30.943Z,35.03
2023-01-30T03:54:57.754Z,34.80
2023-01-30T03:57:24.589Z,35.13
2023-01-30T03:59:51.408Z,35.50
2023-01-30T04:02:23.071Z,33.40
2023-01-30T04:04:50.415Z,34.80
2023-01-30T04:07:17.813Z,31.70
2023-01-30T04:09:44.839Z,35.33
2023-01-30T04:12:11.713Z,33.10
2023-01-30T04:14:38.522Z,33.78
2023-01-30T04:17:05.568Z,32.72
2023-01-30T04:22:07.017Z,31.10
2023-01-30T04:24:33.802Z,28.45
2023-01-30T04:27:00.667Z,27.60
2023-01-30T04:29:27.461Z,29.00
2023-01-30T04:31:54.393Z,28.77
2023-01-30T04:34:21.302Z,22.33
2023-01-30T04:36:48.160Z,26.20
2023-01-30T04:39:15.000Z,25.05
2023-01-30T04:41:41.834Z,24.40
2023-01-30T04:44:08.675Z,24.02
2023-01-30T04:46:35.526Z,23.38
2023-01-30T04:49:02.360Z,21.88
2023-01-30T04:51:29.260Z,22.52
2023-01-30T04:53:56.084Z,21.58
2023-01-30T04:56:22.913Z,20.73
2023-01-30T04:58:49.731Z,20.00
2023-01-30T05:01:24.644Z,18.05
2023-01-30T05:03:55.079Z,18.65
2023-01-30T05:06:22.492Z,17.60
2023-01-30T05:08:54.339Z,16.17
2023-01-30T05:11:22.528Z,15.40
2023-01-30T05:13:49.984Z,15.05
2023-01-30T05:16:17.774Z,13.57
2023-01-30T05:18:45.509Z,14.00
2023-01-30T05:21:22.630Z,13.50
2023-01-30T05:23:49.703Z,13.10
2023-01-30T05:26:16.670Z,12.98
2023-01-30T05:28:43.662Z,10.55
2023-01-30T05:31:14.562Z,11.63
2023-01-30T05:33:41.660Z,11.68
2023-01-30T05:36:13.560Z,10.55
2023-01-30T05:38:40.441Z,9.30
2023-01-30T05:41:08.634Z,9.93
2023-01-30T05:43:35.618Z,10.32
2023-01-30T05:46:04.197Z,8.52
2023-01-30T05:48:32.472Z,8.15
2023-01-30T05:50:59.938Z,20.10
2023-01-30T05:53:32.157Z,13.15
2023-01-30T05:56:01.090Z,8.80
2023-01-30T05:58:28.849Z,7.73
2023-01-30T06:01:00.969Z,10.47
2023-01-30T06:03:28.142Z,7.25
2023-01-30T06:05:54.994Z,6.43
2023-01-30T06:08:21.924Z,6.40
2023-01-30T06:10:48.899Z,6.73
2023-01-30T06:13:15.713Z,8.43
2023-01-30T06:15:43.348Z,18.83
2023-01-30T06:18:10.308Z,6.40
2023-01-30T06:20:37.456Z,12.00
2023-01-30T06:23:04.251Z,9.18
2023-01-30T06:25:31.080Z,7.65
2023-01-30T06:27:57.880Z,60.33
2023-01-30T06:30:24.806Z,14.35
2023-01-30T06:32:52.134Z,6.18
2023-01-30T06:35:19.340Z,7.80
2023-01-30T06:37:46.469Z,7.23
2023-01-30T06:40:13.918Z,21.77
2023-01-30T06:42:46.006Z,4.75
2023-01-30T06:45:14.395Z,7.25
2023-01-30T06:47:48.147Z,8.65
2023-01-30T06:50:16.140Z,9.13
2023-01-30T06:52:44.308Z,5.15
2023-01-30T06:55:13.358Z,4.47
2023-01-30T06:57:40.779Z,5.80
2023-01-30T07:00:11.048Z,9.70
2023-01-30T07:02:38.067Z,4.25
2023-01-30T07:05:07.249Z,5.67
2023-01-30T07:07:34.278Z,4.70
2023-01-30T07:10:07.813Z,3.65
2023-01-30T07:12:36.203Z,4.68
2023-01-30T07:15:04.053Z,5.90
2023-01-30T07:17:31.429Z,6.35
2023-01-30T07:19:58.739Z,7.15
2023-01-30T07:22:25.662Z,5.45
2023-01-30T07:24:52.569Z,4.78
2023-01-30T07:27:19.418Z,4.20
2023-01-30T07:29:46.311Z,4.30
2023-01-30T07:32:19.223Z,7.07
2023-01-30T07:34:47.192Z,7.75
2023-01-30T07:37:14.400Z,4.72
2023-01-30T07:39:41.803Z,9.85
2023-01-30T07:42:08.600Z,9.68
2023-01-30T07:44:35.416Z,8.55
2023-01-30T07:47:02.376Z,4.07
2023-01-30T07:49:29.736Z,4.95
2023-01-30T07:51:56.595Z,5.10
2023-01-30T07:54:23.521Z,5.30
2023-01-30T07:56:50.399Z,5.07
2023-01-30T07:59:17.253Z,4.80
2023-01-30T08:01:44.123Z,4.82
2023-01-30T08:04:11.132Z,4.82
2023-01-30T08:06:39.662Z,5.00
2023-01-30T08:09:07.453Z,4.93
2023-01-30T08:11:34.863Z,6.55
2023-01-30T08:14:01.839Z,5.68
2023-01-30T08:16:28.753Z,4.60
2023-01-30T08:18:55.690Z,4.50
2023-01-30T08:21:22.582Z,5.00
2023-01-30T08:23:49.660Z,9.52
2023-01-30T08:26:16.620Z,4.50
2023-01-30T08:28:43.496Z,5.03
2023-01-30T08:31:12.603Z,5.13
2023-01-30T08:33:39.592Z,5.28
2023-01-30T08:36:06.829Z,4.75
2023-01-30T08:38:33.795Z,4.88
2023-01-30T08:41:01.181Z,5.22
2023-01-30T08:43:28.299Z,5.25
2023-01-30T08:45:56.532Z,5.00
2023-01-30T08:48:23.715Z,4.32
2023-01-30T08:50:54.333Z,5.20
2023-01-30T08:53:21.752Z,4.70
2023-01-30T08:55:54.558Z,5.07
2023-01-30T08:58:22.226Z,5.50
2023-01-30T09:00:50.461Z,4.53
2023-01-30T09:03:18.655Z,4.90
2023-01-30T09:05:45.983Z,4.43
2023-01-30T09:08:13.316Z,5.10
2023-01-30T09:10:40.284Z,5.60
2023-01-30T09:13:09.817Z,5.77
2023-01-30T09:15:36.739Z,5.38
2023-01-30T09:18:05.445Z,5.23
2023-01-30T09:20:32.444Z,5.93
2023-01-30T09:22:59.555Z,4.70
2023-01-30T09:25:26.682Z,4.95
2023-01-30T09:27:53.642Z,7.60
2023-01-30T09:30:21.057Z,5.97
2023-01-30T09:32:48.399Z,5.97
2023-01-30T09:35:15.292Z,5.82
2023-01-30T09:37:53.392Z,5.65
2023-01-30T09:40:31.450Z,5.03
2023-01-30T09:43:29.999Z,6.25
2023-01-30T09:46:13.419Z,4.80
2023-01-30T09:49:14.946Z,5.50
2023-01-30T09:51:50.687Z,4.93
2023-01-30T09:54:33.603Z,5.68
2023-01-30T09:57:20.912Z,5.05
2023-01-30T10:00:36.693Z,5.18
2023-01-30T10:03:14.073Z,4.85
2023-01-30T10:05:54.463Z,5.68
2023-01-30T10:08:39.235Z,4.93
2023-01-30T10:11:30.726Z,4.75
2023-01-30T10:14:08.216Z,5.80
2023-01-30T10:16:43.365Z,4.45
2023-01-30T10:19:36.060Z,7.10
2023-01-30T10:22:29.739Z,5.18
2023-01-30T10:25:27.920Z,7.40
2023-01-30T10:28:02.006Z,5.45
2023-01-30T10:30:29.617Z,4.45
2023-01-30T10:33:02.887Z,5.22
2023-01-30T10:35:39.323Z,4.40
2023-01-30T10:38:44.393Z,5.00
2023-01-30T10:41:37.774Z,5.33
2023-01-30T10:44:11.191Z,4.90
2023-01-30T10:47:09.520Z,4.65
2023-01-30T10:49:52.379Z,4.43
2023-01-30T10:52:33.290Z,5.97
2023-01-30T10:55:37.246Z,4.30
2023-01-30T10:58:28.098Z,5.30
2023-01-30T11:01:07.069Z,3.95
2023-01-30T11:03:39.354Z,4.63
2023-01-30T11:06:17.378Z,3.55
2023-01-30T11:08:44.364Z,4.22
2023-01-30T11:11:49.559Z,5.70
2023-01-30T11:14:17.229Z,5.43
2023-01-30T11:16:48.802Z,4.85
2023-01-30T11:19:21.211Z,4.75
2023-01-30T11:21:56.706Z,4.72
2023-01-30T11:24:29.897Z,5.82
2023-01-30T11:27:24.414Z,5.75
2023-01-30T11:30:02.236Z,7.00
2023-01-30T11:32:29.788Z,4.35
2023-01-30T11:35:27.455Z,9.27
2023-01-30T11:37:56.986Z,5.07
2023-01-30T11:40:31.157Z,6.95
2023-01-30T11:43:06.321Z,4.17
2023-01-30T11:45:40.092Z,3.87
2023-01-30T11:48:33.456Z,6.37
2023-01-30T11:51:07.538Z,5.17
2023-01-30T11:53:41.832Z,3.00
2023-01-30T11:56:14.762Z,4.17
2023-01-30T11:58:46.326Z,3.97
2023-01-30T12:01:14.442Z,3.60
2023-01-30T12:04:00.659Z,4.27
2023-01-30T12:06:32.887Z,3.20
2023-01-30T12:09:00.094Z,3.07
2023-01-30T12:11:47.188Z,5.53
2023-01-30T12:14:39.073Z,5.40
2023-01-30T12:17:21.366Z,4.33
2023-01-30T12:20:19.730Z,6.63
2023-01-30T12:22:55.100Z,6.20
2023-01-30T12:25:35.747Z,4.33
2023-01-30T12:28:12.866Z,4.30
2023-01-30T12:30:43.952Z,4.80
2023-01-30T12:33:15.808Z,3.03
2023-01-30T12:35:52.167Z,7.10
2023-01-30T12:38:56.990Z,3.77
2023-01-30T12:41:47.670Z,5.30
2023-01-30T12:44:49.767Z,7.10
2023-01-30T14:28:46.403Z,7.03
2023-01-30T14:31:47.361Z,6.53
2023-01-30T14:34:39.493Z,6.50
2023-01-30T14:37:27.309Z,6.35
2023-01-30T14:39:56.737Z,14.13
2023-01-30T14:42:26.264Z,13.32
2023-01-30T14:45:13.799Z,12.25
2023-01-30T14:47:47.297Z,9.57
2023-01-30T14:50:20.947Z,5.85
2023-01-30T14:52:50.336Z,7.32
2023-01-30T14:55:21.419Z,7.07
2023-01-30T14:57:55.686Z,6.82
2023-01-30T15:00:29.179Z,13.70
2023-01-30T15:03:01.755Z,12.02
2023-01-30T15:05:42.819Z,15.07
2023-01-30T15:08:16.783Z,11.40
2023-01-30T15:11:14.421Z,8.57
2023-01-30T15:14:02.374Z,12.43
2023-01-30T15:16:48.215Z,7.80
2023-01-30T15:19:48.953Z,18.33
2023-01-30T15:22:33.366Z,9.50
2023-01-30T15:25:25.051Z,10.50
2023-01-30T15:28:29.728Z,10.10
2023-01-30T15:31:26.480Z,9.73
2023-01-30T15:33:56.827Z,8.40
2023-01-30T15:36:31.474Z,16.00
2023-01-30T15:39:07.236Z,14.32
2023-01-30T15:41:40.573Z,12.30
2023-01-30T15:44:30.169Z,11.43
2023-01-30T15:47:21.436Z,10.77
2023-01-30T15:50:09.655Z,7.50
2023-01-30T15:52:49.483Z,11.30
2023-01-30T15:55:36.171Z,8.98
2023-01-30T15:58:12.865Z,16.97
2023-01-30T16:00:46.571Z,18.03
2023-01-30T16:03:24.387Z,12.43
2023-01-30T16:05:55.261Z,9.07
2023-01-30T16:08:28.686Z,15.98
2023-01-30T16:10:55.885Z,12.07
2023-01-30T16:13:23.961Z,10.38
2023-01-30T16:15:54.546Z,17.95
2023-01-30T16:18:21.801Z,17.40
2023-01-30T16:21:13.801Z,8.57
2023-01-30T16:24:16.471Z,19.05
2023-01-30T16:26:46.826Z,6.40
2023-01-30T16:29:26.093Z,7.38
2023-01-30T16:31:55.387Z,8.88
2023-01-30T16:34:35.493Z,10.15
2023-01-30T16:37:27.684Z,9.77
2023-01-30T16:40:23.092Z,13.70
2023-01-30T16:43:02.028Z,12.30
2023-01-30T16:45:34.534Z,8.57
2023-01-30T16:48:30.957Z,8.00
2023-01-30T16:51:00.876Z,6.85
2023-01-30T16:53:32.605Z,10.85
2023-01-30T16:56:02.331Z,5.90
2023-01-30T16:58:34.897Z,6.88
2023-01-30T17:01:04.513Z,7.37
2023-01-30T17:03:36.857Z,6.53
2023-01-30T17:06:16.254Z,8.55
2023-01-30T17:08:54.499Z,11.13
2023-01-30T17:11:41.541Z,5.88
2023-01-30T17:14:20.417Z,10.07
2023-01-30T17:17:15.635Z,8.50
2023-01-30T17:19:42.569Z,9.05
2023-01-30T17:22:24.460Z,12.57
2023-01-30T17:24:51.524Z,11.30
2023-01-30T17:27:18.521Z,11.98
2023-01-30T17:29:47.208Z,35.80
2023-01-30T17:32:15.946Z,16.67
2023-01-30T17:34:43.053Z,11.27
2023-01-30T17:37:20.184Z,9.05
2023-01-30T17:39:47.733Z,6.93
2023-01-30T17:42:17.933Z,7.00
2023-01-30T17:44:44.925Z,8.10
2023-01-30T17:47:12.213Z,7.75
2023-01-30T17:49:39.628Z,7.97
2023-01-30T17:52:07.372Z,7.28
2023-01-30T17:54:34.384Z,7.80
2023-01-30T17:57:04.204Z,7.43
2023-01-30T17:59:31.706Z,8.70
2023-01-30T18:01:59.719Z,7.53
2023-01-30T18:04:26.608Z,7.87
2023-01-30T18:06:56.900Z,6.43
2023-01-30T18:09:25.174Z,6.95
2023-01-30T18:11:52.180Z,6.55
2023-01-30T18:14:19.401Z,5.97
2023-01-30T18:16:46.474Z,8.37
2023-01-30T18:19:17.802Z,9.00
2023-01-30T18:21:46.491Z,11.13
2023-01-30T18:24:14.713Z,8.95
2023-01-30T18:26:42.085Z,7.55
2023-01-30T18:29:09.957Z,8.10
2023-01-30T18:31:38.517Z,6.97
2023-01-30T18:34:07.038Z,6.65
2023-01-30T18:36:35.152Z,8.85
2023-01-30T18:39:02.110Z,11.17
2023-01-30T18:41:29.606Z,9.50
2023-01-30T18:44:02.227Z,5.32
2023-01-30T18:46:29.985Z,7.57
2023-01-30T18:48:57.961Z,6.00
2023-01-30T18:51:28.410Z,5.55
2023-01-30T18:53:56.593Z,8.02
2023-01-30T18:56:26.769Z,6.93
2023-01-30T18:58:57.300Z,7.90
2023-01-30T19:01:26.938Z,7.22
2023-01-30T19:03:58.969Z,7.88
2023-01-30T19:06:26.671Z,6.97
2023-01-30T19:08:53.656Z,11.85
2023-01-30T19:11:41.001Z,13.70
2023-01-30T19:14:08.894Z,9.77
2023-01-30T19:16:37.859Z,8.55
2023-01-30T19:19:05.860Z,8.43
2023-01-30T19:21:33.384Z,6.63
2023-01-30T19:24:03.517Z,21.97
2023-01-30T19:26:30.812Z,12.93
2023-01-30T19:28:57.687Z,6.90
2023-01-30T19:31:24.784Z,7.38
2023-01-30T19:33:57.067Z,12.85
2023-01-30T19:36:25.435Z,8.27
2023-01-30T19:38:52.868Z,7.57
2023-01-30T19:41:25.520Z,7.10
2023-01-30T19:43:54.085Z,6.80
2023-01-30T19:46:21.743Z,6.85
2023-01-30T19:48:49.860Z,6.90
2023-01-30T19:51:21.707Z,6.93
2023-01-30T19:53:57.131Z,10.07
2023-01-30T19:56:26.224Z,9.30
2023-01-30T19:58:55.108Z,49.42
2023-01-30T20:01:24.121Z,7.70
2023-01-30T20:03:51.253Z,6.75
2023-01-30T20:06:20.741Z,9.30
2023-01-30T20:08:50.313Z,6.43
2023-01-30T20:11:21.919Z,6.22
2023-01-30T20:13:50.182Z,6.35
2023-01-30T20:16:20.389Z,8.05
2023-01-30T20:18:49.087Z,6.53
2023-01-30T20:21:18.162Z,6.38
2023-01-30T20:23:45.973Z,7.03
2023-01-30T20:26:18.541Z,6.70
2023-01-30T20:28:46.059Z,5.53
2023-01-30T20:31:16.204Z,6.97
2023-01-30T20:33:43.392Z,7.88
2023-01-30T20:36:13.379Z,5.72
2023-01-30T20:38:42.412Z,7.10
2023-01-30T20:41:15.332Z,6.63
2023-01-30T20:43:45.372Z,6.28
2023-01-30T20:46:17.658Z,14.75
2023-01-30T20:48:45.527Z,11.40
2023-01-30T20:51:21.384Z,21.08
2023-01-30T20:53:59.974Z,13.52
2023-01-30T20:56:31.266Z,28.02
2023-01-30T20:58:58.433Z,9.57
2023-01-30T21:01:25.454Z,7.00
2023-01-30T21:03:54.300Z,6.35
2023-01-30T21:06:37.128Z,7.55
2023-01-30T21:09:15.152Z,5.10
2023-01-30T21:11:42.405Z,16.70
2023-01-30T21:14:09.274Z,9.65
2023-01-30T21:16:37.088Z,6.65
2023-01-30T21:19:07.098Z,8.87
2023-01-30T21:21:46.957Z,24.73
2023-01-30T21:24:14.728Z,6.60
2023-01-30T21:26:46.192Z,5.97
2023-01-30T21:29:16.313Z,4.90
2023-01-30T21:31:44.708Z,14.23
2023-01-30T21:34:12.687Z,6.07
2023-01-30T21:36:40.358Z,5.05
2023-01-30T21:39:26.899Z,9.32
2023-01-30T21:42:12.489Z,13.27
2023-01-30T21:44:40.819Z,5.57
2023-01-30T21:47:08.217Z,6.15
2023-01-30T21:49:36.778Z,5.22
2023-01-30T21:52:04.316Z,5.35
2023-01-30T21:54:31.143Z,5.15
2023-01-30T21:56:58.031Z,5.22
2023-01-30T21:59:24.879Z,7.25
2023-01-30T22:01:51.814Z,5.53
2023-01-30T22:04:19.557Z,5.90
2023-01-30T22:06:46.504Z,5.38
2023-01-30T22:09:14.863Z,5.63
2023-01-30T22:11:42.387Z,5.68
2023-01-30T22:14:13.314Z,5.75
2023-01-30T22:16:40.762Z,5.85
2023-01-30T22:19:08.181Z,5.78
2023-01-30T22:21:37.713Z,5.82
2023-01-30T22:24:07.479Z,5.65
2023-01-30T22:26:34.706Z,5.80
2023-01-30T22:29:03.263Z,6.22
2023-01-30T22:31:34.608Z,5.82
2023-01-30T22:34:03.430Z,5.90
2023-01-30T22:36:32.621Z,6.00
2023-01-30T22:38:59.640Z,6.13
2023-01-30T22:41:27.746Z,6.18
2023-01-30T22:43:56.577Z,5.70
2023-01-30T22:46:26.524Z,6.65
2023-01-30T22:48:54.465Z,5.70
2023-01-30T22:51:29.789Z,5.60
2023-01-30T22:53:59.187Z,6.22
2023-01-30T22:56:31.726Z,6.28
2023-01-30T22:58:58.558Z,5.73
2023-01-30T23:01:34.684Z,6.13
2023-01-30T23:04:06.355Z,6.38
2023-01-30T23:06:34.338Z,6.00
2023-01-30T23:09:02.379Z,7.93
2023-01-30T23:11:30.823Z,7.20
2023-01-30T23:14:15.914Z,6.25
2023-01-30T23:16:44.754Z,6.35
2023-01-30T23:19:13.331Z,6.25
2023-01-30T23:21:45.372Z,6.18
2023-01-30T23:24:15.218Z,5.93
2023-01-30T23:26:44.847Z,5.65
2023-01-30T23:29:15.968Z,10.98
2023-01-30T23:31:44.549Z,5.93
2023-01-30T23:34:20.451Z,6.50
2023-01-30T23:36:47.314Z,8.55
2023-01-30T23:39:14.930Z,7.00
2023-01-30T23:41:42.725Z,6.53
2023-01-30T23:44:10.278Z,6.55
2023-01-30T23:46:40.118Z,5.60
2023-01-30T23:49:13.610Z,6.43
2023-01-30T23:51:42.738Z,14.70
2023-01-30T23:54:10.434Z,6.88
2023-01-30T23:56:40.619Z,9.18
2023-01-30T23:59:08.266Z,21.70
